Time;durP1;ratioP1;P1;durP2;ratioP2;P2;SDS_P1;SDS_P2;PMS_P1;PMS_P2;Temp;Humidity;BMP_temperature;BMP_pressure;BME280_temperature;BME280_humidity;BME280_pressure;Samples;Min_cycle;Max_cycle;Signal;HPM_P1;HPM_P2
2021/11/05 00:00:19;;;;;;;111.47;43.30;;;8.70;99.90;;;;;;6257816;22;20413;-73
2021/11/05 00:02:50;;;;;;;254.77;58.20;;;8.70;99.90;;;;;;6246187;23;20472;-73
2021/11/05 00:05:18;;;;;;;163.43;41.47;;;8.60;99.90;;;;;;6271574;22;20413;-73
2021/11/05 00:07:46;;;;;;;210.50;53.83;;;8.60;99.90;;;;;;6257943;22;20468;-73
2021/11/05 00:10:15;;;;;;;167.83;40.33;;;8.60;99.90;;;;;;6245623;23;20520;-73
2021/11/05 00:12:44;;;;;;;200.37;50.33;;;8.60;99.90;;;;;;6257433;22;20401;-73
2021/11/05 00:15:13;;;;;;;119.63;37.20;;;8.60;99.90;;;;;;6258387;22;20401;-73
2021/11/05 00:17:41;;;;;;;220.40;48.70;;;8.60;99.90;;;;;;6247194;22;20885;-73
2021/11/05 00:20:12;;;;;;;182.17;40.37;;;8.60;99.90;;;;;;6245576;23;20432;-73
2021/11/05 00:22:41;;;;;;;125.00;38.23;;;8.60;99.90;;;;;;6257901;22;20383;-73
2021/11/05 00:25:09;;;;;;;183.83;52.47;;;8.60;99.90;;;;;;6257438;22;20405;-73
2021/11/05 00:27:39;;;;;;;154.43;44.63;;;8.60;99.90;;;;;;6257365;22;20429;-73
2021/11/05 00:30:08;;;;;;;192.23;47.20;;;8.60;99.90;;;;;;6245630;23;20776;-73
2021/11/05 00:32:37;;;;;;;152.80;37.30;;;8.50;99.90;;;;;;6257650;22;20428;-73
2021/11/05 00:35:12;;;;;;;89.83;35.13;;;8.50;99.90;;;;;;6257052;22;20476;-73
2021/11/05 00:37:41;;;;;;;215.33;47.73;;;8.50;99.90;;;;;;6257370;22;20378;-73
2021/11/05 00:40:10;;;;;;;127.17;40.10;;;8.50;99.90;;;;;;6247279;22;20499;-73
2021/11/05 00:42:39;;;;;;;189.83;42.83;;;8.50;99.90;;;;;;6247226;22;20793;-73
2021/11/05 00:45:08;;;;;;;89.83;29.90;;;8.50;99.90;;;;;;6257919;22;20408;-73
2021/11/05 00:47:36;;;;;;;159.77;40.67;;;8.50;99.90;;;;;;6257747;22;20962;-73
2021/11/05 00:50:06;;;;;;;139.10;37.30;;;8.50;99.90;;;;;;6257314;22;20468;-73
2021/11/05 00:52:35;;;;;;;102.50;34.97;;;8.50;99.90;;;;;;6245275;23;20430;-73
2021/11/05 00:55:07;;;;;;;115.33;31.03;;;8.50;99.90;;;;;;6247353;22;20383;-73
2021/11/05 00:57:35;;;;;;;167.33;36.53;;;8.50;99.90;;;;;;6257073;22;20405;-73
2021/11/05 01:00:06;;;;;;;148.47;33.23;;;8.50;99.90;;;;;;6245299;23;20436;-73
2021/11/05 01:02:34;;;;;;;127.20;37.60;;;8.50;99.90;;;;;;6257158;22;20390;-73
2021/11/05 01:05:02;;;;;;;132.77;40.40;;;8.50;99.90;;;;;;6257779;22;20433;-73
2021/11/05 01:07:31;;;;;;;179.60;39.30;;;8.50;99.90;;;;;;6257348;22;20471;-73
2021/11/05 01:10:00;;;;;;;158.87;42.63;;;8.50;99.90;;;;;;6245176;23;20512;-73
2021/11/05 01:12:29;;;;;;;212.37;42.10;;;8.50;99.90;;;;;;6256863;22;20408;-73
2021/11/05 01:14:57;;;;;;;124.70;36.60;;;8.50;99.90;;;;;;6245169;23;20420;-73
2021/11/05 01:17:25;;;;;;;77.90;29.30;;;8.50;99.90;;;;;;6256877;22;20404;-73
2021/11/05 01:19:53;;;;;;;136.17;45.50;;;8.50;99.90;;;;;;6244892;23;20429;-73
2021/11/05 01:22:22;;;;;;;110.00;33.23;;;8.50;99.90;;;;;;6257256;22;20397;-73
2021/11/05 01:24:50;;;;;;;259.37;46.27;;;8.50;99.90;;;;;;6256766;22;20396;-73
2021/11/05 01:27:19;;;;;;;128.97;35.90;;;8.50;99.90;;;;;;6256895;22;20815;-73
2021/11/05 01:29:47;;;;;;;143.33;31.57;;;8.40;99.90;;;;;;6256996;22;20421;-73
2021/11/05 01:32:16;;;;;;;116.03;35.07;;;8.40;99.90;;;;;;6244903;23;20799;-73
2021/11/05 01:34:44;;;;;;;203.00;50.53;;;8.40;99.90;;;;;;6245039;23;20445;-73
2021/11/05 01:37:13;;;;;;;153.90;44.27;;;8.40;99.90;;;;;;6256626;22;20406;-73
2021/11/05 01:39:41;;;;;;;209.67;46.33;;;8.40;99.90;;;;;;6247007;22;20406;-73
2021/11/05 01:42:09;;;;;;;89.97;31.87;;;8.40;99.90;;;;;;6258475;22;20401;-73
2021/11/05 01:44:39;;;;;;;76.77;28.60;;;8.40;99.90;;;;;;6248175;22;20400;-73
2021/11/05 01:47:10;;;;;;;199.53;33.80;;;8.40;99.90;;;;;;6271171;22;20424;-73
2021/11/05 01:49:38;;;;;;;122.33;37.17;;;8.40;99.90;;;;;;6256837;22;20455;-73
2021/11/05 01:52:08;;;;;;;173.67;34.80;;;8.40;99.90;;;;;;6251655;22;20962;-73
2021/11/05 01:54:36;;;;;;;199.53;41.83;;;8.30;99.90;;;;;;6257557;22;20874;-73
2021/11/05 01:57:05;;;;;;;175.27;28.17;;;8.30;99.90;;;;;;6270592;22;20958;-73
2021/11/05 01:59:35;;;;;;;126.77;34.73;;;8.30;99.90;;;;;;6270338;22;20943;-73
2021/11/05 02:02:07;;;;;;;208.20;43.77;;;8.40;99.90;;;;;;6244716;23;20768;-73
2021/11/05 02:04:36;;;;;;;122.03;28.60;;;8.30;99.90;;;;;;6245709;23;20443;-73
2021/11/05 02:07:04;;;;;;;159.47;48.03;;;8.30;99.90;;;;;;6246614;22;20416;-73
2021/11/05 02:09:36;;;;;;;163.20;35.13;;;8.30;99.90;;;;;;6270030;22;20441;-73
2021/11/05 02:12:05;;;;;;;224.87;36.13;;;8.30;99.90;;;;;;6257111;22;20429;-73
2021/11/05 02:14:33;;;;;;;80.47;30.27;;;8.30;99.90;;;;;;6270299;22;20502;-73
2021/11/05 02:17:05;;;;;;;176.60;41.20;;;8.30;99.90;;;;;;6256661;22;20434;-73
2021/11/05 02:19:35;;;;;;;142.30;42.47;;;8.30;99.90;;;;;;6256636;22;20374;-73
2021/11/05 02:22:05;;;;;;;130.73;32.73;;;8.30;99.90;;;;;;6244539;23;20827;-73
2021/11/05 02:24:33;;;;;;;198.53;39.80;;;8.30;99.90;;;;;;6244906;23;20418;-73
2021/11/05 02:27:02;;;;;;;179.37;32.90;;;8.30;99.90;;;;;;6245454;23;20788;-73
2021/11/05 02:29:32;;;;;;;136.10;35.57;;;8.30;99.90;;;;;;6256520;22;20457;-73
2021/11/05 02:32:00;;;;;;;128.93;35.13;;;8.30;99.90;;;;;;6256292;22;20397;-73
2021/11/05 02:34:30;;;;;;;178.50;37.80;;;8.30;99.90;;;;;;6270286;22;20415;-73
2021/11/05 02:36:58;;;;;;;181.27;36.90;;;8.30;99.90;;;;;;6256269;22;20420;-73
2021/11/05 02:39:28;;;;;;;164.83;36.73;;;8.30;99.90;;;;;;6256251;22;20397;-73
2021/11/05 02:41:56;;;;;;;234.33;43.37;;;8.30;99.90;;;;;;6256371;22;20397;-73
2021/11/05 02:44:24;;;;;;;154.30;38.10;;;8.30;99.90;;;;;;6246723;22;20476;-73
2021/11/05 02:46:54;;;;;;;150.87;38.90;;;8.30;99.90;;;;;;6256423;22;20896;-73
2021/11/05 02:49:22;;;;;;;124.50;34.70;;;8.30;99.90;;;;;;6256659;22;20456;-73
2021/11/05 02:51:51;;;;;;;125.67;32.70;;;8.30;99.90;;;;;;6256288;22;20413;-73
2021/11/05 02:54:19;;;;;;;157.03;35.83;;;8.30;99.90;;;;;;6244612;23;20492;-73
2021/11/05 02:56:49;;;;;;;169.37;36.80;;;8.30;99.90;;;;;;6256216;22;20404;-73
2021/11/05 02:59:17;;;;;;;152.80;32.83;;;8.30;99.90;;;;;;6256307;22;20423;-73
2021/11/05 03:01:45;;;;;;;200.47;38.23;;;8.30;99.90;;;;;;6245922;22;20431;-73
2021/11/05 03:04:16;;;;;;;129.97;32.43;;;8.30;99.90;;;;;;6256173;22;20464;-73
2021/11/05 03:06:44;;;;;;;94.07;30.23;;;8.30;99.90;;;;;;6256316;22;20398;-73
2021/11/05 03:09:14;;;;;;;189.77;33.70;;;8.40;99.90;;;;;;6244361;23;20479;-73
2021/11/05 03:11:44;;;;;;;148.43;26.73;;;8.40;99.90;;;;;;6256251;22;20448;-73
2021/11/05 03:14:14;;;;;;;111.93;32.70;;;8.40;99.90;;;;;;6244694;23;20752;-73
2021/11/05 03:16:43;;;;;;;66.30;22.20;;;8.40;99.90;;;;;;6256309;22;20408;-73
2021/11/05 03:19:11;;;;;;;172.73;33.50;;;8.40;99.90;;;;;;6244375;23;20421;-73
2021/11/05 03:21:39;;;;;;;164.27;31.87;;;8.40;99.90;;;;;;6246400;22;20532;-73
2021/11/05 03:24:08;;;;;;;140.30;34.97;;;8.40;99.90;;;;;;6245991;22;20420;-73
2021/11/05 03:26:36;;;;;;;100.30;25.90;;;8.40;99.90;;;;;;6256086;22;20395;-73
2021/11/05 03:29:07;;;;;;;145.47;33.83;;;8.40;99.90;;;;;;6256384;22;20888;-73
2021/11/05 03:31:36;;;;;;;111.63;32.93;;;8.40;99.90;;;;;;6256254;22;20408;-73
2021/11/05 03:34:05;;;;;;;125.83;27.63;;;8.50;99.90;;;;;;6257538;22;20405;-73
2021/11/05 03:36:33;;;;;;;92.70;27.97;;;8.50;99.90;;;;;;6257884;22;20397;-73
2021/11/05 03:39:02;;;;;;;143.27;30.73;;;8.50;99.90;;;;;;6246245;23;20475;-73
2021/11/05 03:41:31;;;;;;;188.60;26.13;;;8.50;99.90;;;;;;6257902;22;20424;-73
2021/11/05 03:43:59;;;;;;;182.40;34.53;;;8.50;99.90;;;;;;6258352;22;20401;-73
2021/11/05 03:46:30;;;;;;;212.97;33.60;;;8.50;99.90;;;;;;6246632;23;20421;-73
2021/11/05 03:49:00;;;;;;;158.37;33.97;;;8.50;99.90;;;;;;6246329;23;21041;-73
2021/11/05 03:51:28;;;;;;;150.17;26.23;;;8.50;99.90;;;;;;6257399;22;20445;-73
2021/11/05 03:53:56;;;;;;;175.57;33.57;;;8.50;99.90;;;;;;6258227;22;20417;-73
2021/11/05 03:56:25;;;;;;;152.77;30.97;;;8.50;99.90;;;;;;6257770;22;20884;-73
2021/11/05 03:58:54;;;;;;;204.00;48.03;;;8.50;99.90;;;;;;6258283;22;20390;-73
2021/11/05 04:01:22;;;;;;;94.37;22.67;;;8.50;99.90;;;;;;6257866;22;20422;-73
2021/11/05 04:03:51;;;;;;;173.97;30.60;;;8.50;99.90;;;;;;6260902;22;20501;-73
2021/11/05 04:06:22;;;;;;;103.17;26.77;;;8.50;99.90;;;;;;6253642;23;20416;-73
2021/11/05 04:08:54;;;;;;;153.47;35.40;;;8.50;99.90;;;;;;6265407;23;20413;-72
2021/11/05 04:11:22;;;;;;;186.50;38.87;;;8.50;99.90;;;;;;6277921;22;20977;-72
2021/11/05 04:13:50;;;;;;;160.20;34.80;;;8.50;99.90;;;;;;6261786;23;20788;-72
2021/11/05 04:16:18;;;;;;;139.87;29.73;;;8.50;99.90;;;;;;6266403;23;20423;-72
2021/11/05 04:18:46;;;;;;;107.20;28.47;;;8.50;99.90;;;;;;6277836;22;20396;-72
2021/11/05 04:21:15;;;;;;;216.70;38.30;;;8.50;99.90;;;;;;6273469;22;20460;-72
2021/11/05 04:23:45;;;;;;;238.40;36.23;;;8.50;99.90;;;;;;6272416;22;20471;-72
2021/11/05 04:26:13;;;;;;;177.47;30.93;;;8.50;99.90;;;;;;6273024;22;20413;-72
2021/11/05 04:28:41;;;;;;;196.33;37.77;;;8.50;99.90;;;;;;6257138;23;20413;-72
2021/11/05 04:31:09;;;;;;;196.53;32.27;;;8.40;99.90;;;;;;6250089;23;20470;-73
2021/11/05 04:33:39;;;;;;;159.20;35.03;;;8.50;99.90;;;;;;6258975;22;20400;-73
2021/11/05 04:36:08;;;;;;;211.73;37.40;;;8.50;99.90;;;;;;6258078;22;20397;-73
2021/11/05 04:38:36;;;;;;;164.63;27.77;;;8.50;99.90;;;;;;6247900;22;20463;-73
2021/11/05 04:41:10;;;;;;;115.10;25.23;;;8.50;99.90;;;;;;6257571;22;20749;-73
2021/11/05 04:43:39;;;;;;;212.03;37.33;;;8.50;99.90;;;;;;6257247;22;20382;-73
2021/11/05 04:46:07;;;;;;;127.90;27.33;;;8.50;99.90;;;;;;6258180;23;20393;-73
2021/11/05 04:48:36;;;;;;;238.97;34.30;;;8.50;99.90;;;;;;6247375;23;20500;-73
2021/11/05 04:51:04;;;;;;;110.93;26.97;;;8.50;99.90;;;;;;6256711;22;20440;-73
2021/11/05 04:53:32;;;;;;;70.73;22.23;;;8.50;99.90;;;;;;6257947;22;20800;-73
2021/11/05 04:56:00;;;;;;;216.37;34.47;;;8.50;99.90;;;;;;6247038;22;20446;-73
2021/11/05 04:58:30;;;;;;;170.63;31.80;;;8.50;99.90;;;;;;6257227;22;20428;-73
2021/11/05 05:00:58;;;;;;;160.37;30.53;;;8.50;99.90;;;;;;6245295;23;20436;-73
2021/11/05 05:03:26;;;;;;;122.50;22.80;;;8.50;99.90;;;;;;6270968;22;20448;-73
2021/11/05 05:05:54;;;;;;;223.37;29.10;;;8.50;99.90;;;;;;6257200;22;20401;-73
2021/11/05 05:08:23;;;;;;;182.00;23.53;;;8.50;99.90;;;;;;6256914;22;20401;-73
2021/11/05 05:10:51;;;;;;;71.90;17.20;;;8.50;99.90;;;;;;6246588;22;20444;-73
2021/11/05 05:13:20;;;;;;;189.10;28.57;;;8.50;99.90;;;;;;6257282;22;20433;-73
2021/11/05 05:15:52;;;;;;;160.63;26.47;;;8.60;99.90;;;;;;6245210;23;20746;-73
2021/11/05 05:18:20;;;;;;;82.23;23.70;;;8.60;99.90;;;;;;6245088;23;20408;-73
2021/11/05 05:20:49;;;;;;;95.10;20.73;;;8.60;99.90;;;;;;6257062;22;20447;-73
2021/11/05 05:23:18;;;;;;;132.30;28.50;;;8.60;99.90;;;;;;6257257;22;20885;-73
2021/11/05 05:25:46;;;;;;;135.70;24.30;;;8.60;99.90;;;;;;6260045;22;20480;-72
2021/11/05 05:28:14;;;;;;;197.70;29.00;;;8.60;99.90;;;;;;6248692;23;20412;-73
2021/11/05 05:30:43;;;;;;;139.73;30.47;;;8.60;99.90;;;;;;6257165;22;20906;-73
2021/11/05 05:33:12;;;;;;;241.50;36.43;;;8.60;99.90;;;;;;6258898;22;20410;-72
2021/11/05 05:35:40;;;;;;;196.43;35.63;;;8.60;99.90;;;;;;6259233;22;20481;-72
2021/11/05 05:38:09;;;;;;;180.53;34.00;;;8.60;99.90;;;;;;6257628;22;20398;-72
2021/11/05 05:40:37;;;;;;;122.87;30.97;;;8.60;99.90;;;;;;6245598;23;20511;-73
2021/11/05 05:43:05;;;;;;;128.13;32.73;;;8.50;99.90;;;;;;6247748;22;20751;-72
2021/11/05 05:45:33;;;;;;;132.60;25.40;;;8.50;99.90;;;;;;6245070;23;20475;-72
2021/11/05 05:48:01;;;;;;;168.20;28.60;;;8.50;99.90;;;;;;6256978;22;20427;-73
2021/11/05 05:50:31;;;;;;;106.00;28.67;;;8.50;99.90;;;;;;6246889;22;20563;-72
2021/11/05 05:52:59;;;;;;;153.50;28.33;;;8.50;99.90;;;;;;6246776;22;20416;-72
2021/11/05 05:55:27;;;;;;;158.87;34.63;;;8.50;99.90;;;;;;6256374;22;20474;-73
2021/11/05 05:58:00;;;;;;;187.47;30.47;;;8.50;99.90;;;;;;6257030;22;20384;-72
2021/11/05 06:00:29;;;;;;;158.70;31.83;;;8.50;99.90;;;;;;6257253;22;20451;-73
2021/11/05 06:02:58;;;;;;;166.60;31.17;;;8.40;99.90;;;;;;6256576;22;20396;-72
2021/11/05 06:05:26;;;;;;;145.67;33.17;;;8.40;99.90;;;;;;6256797;22;20456;-72
2021/11/05 06:07:55;;;;;;;103.57;23.87;;;8.40;99.90;;;;;;6256933;22;20432;-72
2021/11/05 06:10:24;;;;;;;127.17;24.93;;;8.40;99.90;;;;;;6255977;22;20811;-72
2021/11/05 06:12:52;;;;;;;112.50;26.97;;;8.40;99.90;;;;;;6256845;22;20762;-72
2021/11/05 06:15:20;;;;;;;166.23;30.00;;;8.40;99.90;;;;;;6255361;22;20408;-72
2021/11/05 06:17:48;;;;;;;95.60;19.20;;;8.40;99.90;;;;;;6256424;22;20402;-72
2021/11/05 06:20:19;;;;;;;177.43;27.60;;;8.40;99.90;;;;;;6256417;22;20413;-72
2021/11/05 06:22:47;;;;;;;186.43;26.57;;;8.40;99.90;;;;;;6257057;22;20413;-72
2021/11/05 06:25:17;;;;;;;153.73;32.10;;;8.40;99.90;;;;;;6256504;22;20487;-73
2021/11/05 06:27:45;;;;;;;140.27;25.53;;;8.40;99.90;;;;;;6245033;23;20756;-73
2021/11/05 06:30:14;;;;;;;118.90;28.80;;;8.40;99.90;;;;;;6256380;22;20479;-73
2021/11/05 06:32:43;;;;;;;153.80;20.93;;;8.40;99.90;;;;;;6244904;23;20402;-73
2021/11/05 06:35:13;;;;;;;131.33;26.93;;;8.40;99.90;;;;;;6256666;22;20488;-73
2021/11/05 06:37:42;;;;;;;175.07;35.37;;;8.40;99.90;;;;;;6245365;23;20433;-73
2021/11/05 06:40:12;;;;;;;164.27;31.13;;;8.40;99.90;;;;;;6270400;22;20428;-73
2021/11/05 06:42:42;;;;;;;187.00;42.63;;;8.40;99.90;;;;;;6256777;22;20744;-73
2021/11/05 06:45:11;;;;;;;133.90;27.60;;;8.40;99.90;;;;;;6256629;22;20432;-73
2021/11/05 06:47:39;;;;;;;120.60;28.90;;;8.40;99.90;;;;;;6246669;22;20413;-73
2021/11/05 06:50:09;;;;;;;150.60;31.57;;;8.30;99.90;;;;;;6270098;22;20935;-73
2021/11/05 06:52:37;;;;;;;124.77;23.40;;;8.30;99.90;;;;;;6256902;22;20408;-73
2021/11/05 06:55:07;;;;;;;114.43;29.10;;;8.30;99.90;;;;;;6256547;22;20439;-72
2021/11/05 06:57:35;;;;;;;155.27;30.20;;;8.30;99.90;;;;;;6256250;22;20435;-73
2021/11/05 07:00:08;;;;;;;101.80;26.30;;;8.30;99.90;;;;;;6256704;22;20420;-73
2021/11/05 07:02:40;;;;;;;166.57;31.33;;;8.30;99.90;;;;;;6244488;23;20413;-73
2021/11/05 07:05:10;;;;;;;144.17;28.03;;;8.30;99.90;;;;;;6256430;22;20397;-73
2021/11/05 07:07:38;;;;;;;115.13;26.17;;;8.30;99.90;;;;;;6246940;23;20878;-72
2021/11/05 07:10:08;;;;;;;95.60;23.90;;;8.20;99.90;;;;;;6258269;22;20936;-73
2021/11/05 07:12:38;;;;;;;139.80;26.07;;;8.20;99.90;;;;;;6258568;22;20396;-73
2021/11/05 07:15:13;;;;;;;151.93;29.20;;;8.20;99.90;;;;;;6248367;22;20401;-73
2021/11/05 07:17:41;;;;;;;125.83;26.63;;;8.20;99.90;;;;;;6246219;23;20451;-73
2021/11/05 07:20:10;;;;;;;186.33;26.53;;;8.10;99.90;;;;;;6271799;22;20445;-72
2021/11/05 07:22:38;;;;;;;102.90;22.50;;;8.10;99.90;;;;;;6258010;22;20692;-72
2021/11/05 07:25:08;;;;;;;131.90;30.77;;;8.10;99.90;;;;;;6258036;22;20432;-72
2021/11/05 07:27:36;;;;;;;97.10;22.93;;;8.10;99.90;;;;;;6246388;23;20455;-73
2021/11/05 07:30:06;;;;;;;195.80;38.63;;;8.10;99.90;;;;;;6246107;23;20444;-73
2021/11/05 07:32:36;;;;;;;115.83;21.47;;;8.10;99.90;;;;;;6258157;22;20432;-72
2021/11/05 07:35:06;;;;;;;108.33;24.60;;;8.00;99.90;;;;;;6246302;23;20409;-73
2021/11/05 07:37:34;;;;;;;70.80;19.33;;;8.00;99.90;;;;;;6246264;23;20416;-73
2021/11/05 07:40:02;;;;;;;123.47;30.27;;;8.00;99.90;;;;;;6246154;23;20431;-73
2021/11/05 07:42:30;;;;;;;136.33;30.87;;;8.00;99.90;;;;;;6257895;22;20478;-72
2021/11/05 07:44:58;;;;;;;179.23;26.67;;;8.00;99.90;;;;;;6257904;22;20429;-73
2021/11/05 07:47:26;;;;;;;124.27;21.33;;;8.00;99.90;;;;;;6257812;22;20430;-72
2021/11/05 07:49:56;;;;;;;79.63;21.90;;;8.10;99.90;;;;;;6258964;22;20793;-72
2021/11/05 07:52:24;;;;;;;140.87;29.03;;;8.00;99.90;;;;;;6252105;22;20443;-72
2021/11/05 07:54:53;;;;;;;82.07;25.57;;;8.00;99.90;;;;;;6248588;22;20496;-72
2021/11/05 07:57:23;;;;;;;99.70;21.13;;;8.10;99.90;;;;;;6246639;23;20454;-73
2021/11/05 07:59:52;;;;;;;180.60;31.00;;;8.00;99.90;;;;;;6258461;22;20459;-73
2021/11/05 08:02:20;;;;;;;191.63;26.07;;;8.10;99.90;;;;;;6258011;22;20429;-72
2021/11/05 08:04:49;;;;;;;71.23;23.37;;;8.10;99.90;;;;;;6258628;22;20436;-73
2021/11/05 08:07:21;;;;;;;190.30;28.40;;;8.10;99.90;;;;;;6245882;23;20418;-72
2021/11/05 08:09:49;;;;;;;112.67;19.93;;;8.10;99.90;;;;;;6257975;22;20467;-73
2021/11/05 08:12:17;;;;;;;239.67;35.10;;;8.10;99.90;;;;;;6257719;22;20525;-72
2021/11/05 08:14:46;;;;;;;80.97;21.30;;;8.10;99.90;;;;;;6247565;22;20496;-73
2021/11/05 08:17:14;;;;;;;127.97;26.43;;;8.10;99.90;;;;;;6257970;22;20779;-72
2021/11/05 08:19:42;;;;;;;86.10;25.47;;;8.20;99.90;;;;;;6257026;23;20894;-72
2021/11/05 08:22:11;;;;;;;154.93;19.97;;;8.20;99.90;;;;;;6257407;22;20429;-73
2021/11/05 08:24:40;;;;;;;125.23;24.57;;;8.20;99.90;;;;;;6257971;22;20425;-72
2021/11/05 08:27:08;;;;;;;117.97;23.90;;;8.20;99.90;;;;;;6247623;22;20410;-73
2021/11/05 08:29:37;;;;;;;157.37;29.07;;;8.30;99.90;;;;;;6257245;22;20397;-73
2021/11/05 08:32:06;;;;;;;222.10;27.30;;;8.30;99.90;;;;;;6257491;22;20467;-72
2021/11/05 08:34:34;;;;;;;67.93;18.83;;;8.30;99.90;;;;;;6257721;22;20401;-73
2021/11/05 08:37:02;;;;;;;154.50;27.40;;;8.40;99.90;;;;;;6245699;23;20496;-72
2021/11/05 08:39:30;;;;;;;150.27;20.90;;;8.50;99.90;;;;;;6257232;22;20390;-72
2021/11/05 08:42:00;;;;;;;158.30;30.17;;;8.50;99.90;;;;;;6257327;22;20466;-72
2021/11/05 08:44:30;;;;;;;226.00;28.83;;;8.50;99.90;;;;;;6245428;23;20496;-72
2021/11/05 08:46:58;;;;;;;216.40;27.40;;;8.60;99.90;;;;;;6248289;22;20464;-72
2021/11/05 08:49:27;;;;;;;200.63;31.73;;;8.60;99.90;;;;;;6271024;22;20445;-73
2021/11/05 08:51:56;;;;;;;120.63;22.23;;;8.70;99.90;;;;;;6257934;22;20916;-73
2021/11/05 08:54:26;;;;;;;68.20;20.30;;;8.70;99.90;;;;;;6245458;23;20410;-73
2021/11/05 08:56:55;;;;;;;159.27;26.07;;;8.70;99.90;;;;;;6257429;22;20412;-72
2021/11/05 08:59:26;;;;;;;112.80;20.77;;;8.80;99.90;;;;;;6257104;22;20780;-73
2021/11/05 09:01:57;;;;;;;120.67;24.57;;;8.80;99.90;;;;;;6245359;23;20434;-73
2021/11/05 09:04:26;;;;;;;193.77;31.40;;;8.90;99.90;;;;;;6245489;23;20412;-73
2021/11/05 09:06:55;;;;;;;203.60;40.90;;;8.90;99.90;;;;;;6257300;22;20405;-73
2021/11/05 09:09:23;;;;;;;96.00;21.07;;;9.00;99.90;;;;;;6245423;23;20914;-73
2021/11/05 09:11:52;;;;;;;199.23;34.70;;;9.00;99.90;;;;;;6245566;23;20833;-74
2021/11/05 09:14:21;;;;;;;150.43;28.63;;;9.10;99.90;;;;;;6245364;23;20412;-73
2021/11/05 09:17:10;;;;;;;175.30;26.60;;;9.10;99.90;;;;;;6245133;23;20474;-73
2021/11/05 09:19:38;;;;;;;117.97;22.10;;;9.20;99.90;;;;;;6256811;22;20405;-73
2021/11/05 09:22:06;;;;;;;254.57;44.17;;;9.20;99.90;;;;;;6245024;23;20496;-73
2021/11/05 09:24:35;;;;;;;152.60;22.30;;;9.30;99.90;;;;;;6256910;22;20405;-73
2021/11/05 09:27:03;;;;;;;145.33;20.77;;;9.30;99.90;;;;;;6257072;22;20906;-73
2021/11/05 09:29:31;;;;;;;226.10;28.03;;;9.40;99.90;;;;;;6256682;22;20430;-73
2021/11/05 09:32:00;;;;;;;262.27;33.77;;;9.50;99.90;;;;;;6256831;22;20760;-73
2021/11/05 09:34:31;;;;;;;256.10;32.40;;;9.50;99.90;;;;;;6257499;22;20448;-73
2021/11/05 09:37:01;;;;;;;230.33;31.87;;;9.60;99.90;;;;;;6257027;22;20435;-73
2021/11/05 09:39:30;;;;;;;189.23;27.83;;;9.60;99.90;;;;;;6256970;22;20386;-73
2021/11/05 09:41:59;;;;;;;217.60;28.27;;;9.60;99.90;;;;;;6256568;22;20397;-73
2021/11/05 09:44:29;;;;;;;261.93;34.57;;;9.70;99.90;;;;;;6256706;22;20456;-73
2021/11/05 09:47:01;;;;;;;157.90;28.67;;;9.70;99.90;;;;;;6244876;23;20425;-73
2021/11/05 09:49:32;;;;;;;176.07;30.73;;;9.80;99.90;;;;;;6256857;22;20381;-73
2021/11/05 09:52:04;;;;;;;279.90;38.13;;;9.80;99.90;;;;;;6270199;22;20520;-73
2021/11/05 09:54:38;;;;;;;154.43;19.27;;;9.80;99.90;;;;;;6257272;22;20400;-73
2021/11/05 09:57:06;;;;;;;123.07;21.47;;;9.90;99.90;;;;;;6256997;22;20389;-73
2021/11/05 09:59:34;;;;;;;119.30;24.10;;;9.90;99.90;;;;;;6256418;22;20392;-73
2021/11/05 10:02:03;;;;;;;100.97;17.63;;;9.90;99.90;;;;;;6244830;23;20517;-73
2021/11/05 10:04:33;;;;;;;189.87;29.17;;;10.00;99.90;;;;;;6246701;22;20406;-73
2021/11/05 10:07:05;;;;;;;179.40;23.90;;;10.00;99.90;;;;;;6256599;22;20737;-73
2021/11/05 10:09:37;;;;;;;177.97;28.87;;;10.00;99.90;;;;;;6256719;22;20432;-73
2021/11/05 10:12:09;;;;;;;167.37;31.20;;;10.10;99.90;;;;;;6246517;22;20418;-73
2021/11/05 10:14:38;;;;;;;217.87;28.87;;;10.10;99.90;;;;;;6244717;23;20410;-73
2021/11/05 10:17:08;;;;;;;128.53;17.27;;;10.10;99.90;;;;;;6256382;22;20733;-73
2021/11/05 10:19:49;;;;;;;129.67;23.20;;;10.20;99.90;;;;;;6256944;22;20410;-73
2021/11/05 10:22:40;;;;;;;233.00;25.43;;;10.20;99.90;;;;;;6256764;22;20829;-73
2021/11/05 10:25:31;;;;;;;164.83;31.13;;;10.20;99.90;;;;;;6246501;22;20703;-73
2021/11/05 10:28:02;;;;;;;203.03;28.37;;;10.30;99.90;;;;;;6244700;23;20409;-73
2021/11/05 10:30:32;;;;;;;255.47;35.00;;;10.30;99.90;;;;;;6244627;23;20433;-73
2021/11/05 10:33:02;;;;;;;221.93;37.00;;;10.40;99.90;;;;;;6256283;22;20513;-73
2021/11/05 10:35:32;;;;;;;293.73;42.00;;;10.40;99.90;;;;;;6256726;22;20390;-73
2021/11/05 10:38:04;;;;;;;322.07;51.57;;;10.40;99.90;;;;;;6256385;22;20421;-73
2021/11/05 10:40:34;;;;;;;383.60;67.27;;;10.40;99.90;;;;;;6257108;22;20913;-73
2021/11/05 10:43:03;;;;;;;244.30;38.30;;;10.50;99.90;;;;;;6258955;22;20413;-73
2021/11/05 10:45:32;;;;;;;309.63;67.43;;;10.50;99.90;;;;;;6258390;22;20448;-73
2021/11/05 10:48:06;;;;;;;252.07;32.00;;;10.50;99.90;;;;;;6258730;22;20398;-73
2021/11/05 10:50:47;;;;;;;261.90;40.43;;;10.60;99.90;;;;;;6258379;22;20443;-73
2021/11/05 10:53:18;;;;;;;320.77;46.03;;;10.60;99.90;;;;;;6250146;22;20465;-73
2021/11/05 10:55:50;;;;;;;429.40;71.17;;;10.60;99.90;;;;;;6259664;22;20457;-73
2021/11/05 10:58:21;;;;;;;377.83;71.87;;;10.70;99.90;;;;;;6246617;23;20493;-73
2021/11/05 11:00:51;;;;;;;332.30;72.37;;;10.70;99.90;;;;;;6258572;22;20409;-73
2021/11/05 11:03:25;;;;;;;384.57;69.83;;;10.70;99.90;;;;;;6258189;22;20441;-73
2021/11/05 11:05:55;;;;;;;348.53;65.87;;;10.80;99.90;;;;;;6258450;22;20398;-73
2021/11/05 11:08:26;;;;;;;335.87;79.57;;;10.80;99.90;;;;;;6258144;22;20429;-73
2021/11/05 11:10:56;;;;;;;402.37;72.77;;;10.90;99.90;;;;;;6247898;22;20425;-73
2021/11/05 11:13:36;;;;;;;397.03;69.03;;;10.90;99.90;;;;;;6258727;22;20418;-73
2021/11/05 11:16:07;;;;;;;405.93;79.47;;;11.00;99.90;;;;;;6258199;22;20413;-73
2021/11/05 11:18:48;;;;;;;332.60;58.50;;;11.00;99.90;;;;;;6246341;23;20769;-73
2021/11/05 11:21:19;;;;;;;472.30;79.70;;;11.00;99.90;;;;;;6271947;22;20479;-73
2021/11/05 11:23:47;;;;;;;339.37;67.77;;;11.00;99.90;;;;;;6246470;23;20433;-73
2021/11/05 11:26:18;;;;;;;312.33;67.43;;;11.10;99.90;;;;;;6258380;22;20485;-73
2021/11/05 11:28:46;;;;;;;342.00;77.43;;;11.10;99.90;;;;;;6258273;22;20394;-73
2021/11/05 11:31:17;;;;;;;346.10;86.70;;;11.10;99.90;;;;;;6271694;22;20437;-73
2021/11/05 11:33:46;;;;;;;275.23;61.10;;;11.10;99.90;;;;;;6246579;23;20967;-73
2021/11/05 11:36:18;;;;;;;457.50;82.40;;;11.10;99.90;;;;;;6258240;22;20389;-73
2021/11/05 11:38:49;;;;;;;397.67;79.13;;;11.10;99.90;;;;;;6247260;23;20438;-73
2021/11/05 11:41:19;;;;;;;431.87;89.93;;;11.20;99.90;;;;;;6258129;22;20455;-73
2021/11/05 11:43:47;;;;;;;412.17;80.77;;;11.20;99.90;;;;;;6258220;22;20794;-73
2021/11/05 11:46:16;;;;;;;392.90;95.97;;;11.20;99.90;;;;;;6257820;22;20390;-73
2021/11/05 11:48:53;;;;;;;225.83;72.23;;;11.30;99.90;;;;;;6271951;22;20416;-73
2021/11/05 11:51:34;;;;;;;198.83;71.93;;;11.30;99.90;;;;;;6247681;22;20445;-73
2021/11/05 11:54:27;;;;;;;348.17;92.80;;;11.30;99.90;;;;;;6257480;22;20765;-73
2021/11/05 11:57:10;;;;;;;450.23;113.17;;;11.40;99.90;;;;;;6245980;23;20401;-73
2021/11/05 11:59:39;;;;;;;365.93;101.73;;;11.40;99.90;;;;;;6245940;23;20493;-73
2021/11/05 12:02:32;;;;;;;153.10;58.00;;;11.40;99.90;;;;;;6257676;22;20760;-73
2021/11/05 12:05:01;;;;;;;249.70;78.53;;;11.40;99.90;;;;;;6271568;22;20426;-73
2021/11/05 12:07:30;;;;;;;530.33;105.33;;;11.40;99.90;;;;;;6257484;22;20448;-73
2021/11/05 12:10:27;;;;;;;177.10;77.83;;;11.50;99.90;;;;;;6257341;22;20437;-73
2021/11/05 12:12:56;;;;;;;392.93;96.33;;;11.50;99.90;;;;;;6257496;22;20453;-73
2021/11/05 12:15:24;;;;;;;239.17;99.10;;;11.50;99.90;;;;;;6257472;22;20452;-73
2021/11/05 12:18:10;;;;;;;270.83;81.57;;;11.60;99.90;;;;;;6258176;22;20865;-73
2021/11/05 12:20:41;;;;;;;528.20;138.13;;;11.60;99.90;;;;;;6246469;23;20457;-73
2021/11/05 12:23:26;;;;;;;274.33;95.43;;;11.60;99.90;;;;;;6245638;23;20781;-73
2021/11/05 12:26:00;;;;;;;337.10;89.90;;;11.70;99.90;;;;;;6245572;23;20437;-73
2021/11/05 12:28:40;;;;;;;548.40;140.00;;;11.70;99.90;;;;;;6245619;23;20497;-73
2021/11/05 12:31:28;;;;;;;353.80;95.20;;;11.70;99.90;;;;;;6257611;22;20913;-73
2021/11/05 12:34:17;;;;;;;275.20;95.57;;;11.70;99.90;;;;;;6245530;23;20433;-73
2021/11/05 12:36:47;;;;;;;394.40;81.53;;;11.70;99.90;;;;;;6257678;22;20935;-73
2021/11/05 12:39:16;;;;;;;441.43;128.47;;;11.70;99.90;;;;;;6271362;22;20429;-73